Terminal Aerodrome Forecast
Issued by NWS

Current Version | Previous Version | Graphics & Text | Print | Product List | Glossary On
Versions: 1 2 3 4 5 6 7 8 9 10 11 12 13 14 15 16 17 18
000
FTUS41 KPBZ 192321
TAFHLG
TAF
KHLG 192321Z 2000/2024 25008KT P6SM SKC
     FM200800 00000KT 2SM BR SCT008
     FM201000 00000KT 1SM BR SCT005
     FM201500 VRB03KT P6SM BKN250=

USA.gov is the U.S. government's official web portal to all federal, state and local government web resources and services.